Time;durP1;ratioP1;P1;durP2;ratioP2;P2;SDS_P1;SDS_P2;PMS_P1;PMS_P2;Temp;Humidity;BMP_temperature;BMP_pressure;BME280_temperature;BME280_humidity;BME280_pressure;Samples;Min_cycle;Max_cycle;Signal;HPM_P1;HPM_P2
2023/05/16 00:00:47;;;;;;;2.50;2.30;;;12.30;99.90;;;;;;5061774;28;20677;-56
2023/05/16 00:03:14;;;;;;;2.23;2.13;;;12.30;99.90;;;;;;5069856;28;20230;-55
2023/05/16 00:05:41;;;;;;;4.13;3.30;;;12.30;99.90;;;;;;5072239;28;20197;-56
2023/05/16 00:08:09;;;;;;;3.20;3.10;;;12.20;99.90;;;;;;5071238;28;20610;-55
2023/05/16 00:10:36;;;;;;;2.10;2.00;;;12.20;99.90;;;;;;5070610;28;20216;-56
2023/05/16 00:13:03;;;;;;;3.67;2.33;;;12.20;99.90;;;;;;5071468;28;20209;-55
2023/05/16 00:15:30;;;;;;;3.23;2.40;;;12.10;99.90;;;;;;5071423;28;20197;-55
2023/05/16 00:17:58;;;;;;;1.80;1.77;;;12.10;99.90;;;;;;5066968;28;20201;-56
2023/05/16 00:20:26;;;;;;;2.40;2.30;;;12.10;99.90;;;;;;5072293;28;20279;-56
2023/05/16 00:22:53;;;;;;;2.50;2.40;;;12.10;99.90;;;;;;5070727;28;20299;-56
2023/05/16 00:25:22;;;;;;;2.93;2.83;;;12.10;99.90;;;;;;5063520;28;20248;-56
2023/05/16 00:27:48;;;;;;;2.90;2.80;;;12.00;99.90;;;;;;5069429;28;20203;-56
2023/05/16 00:30:15;;;;;;;2.43;2.27;;;12.00;99.90;;;;;;5071213;28;20205;-56
2023/05/16 00:32:42;;;;;;;2.60;2.40;;;12.00;99.90;;;;;;5070499;28;20215;-56
2023/05/16 00:35:10;;;;;;;2.47;2.20;;;12.00;99.90;;;;;;5071655;28;20203;-55
2023/05/16 00:37:40;;;;;;;3.83;2.77;;;12.00;99.90;;;;;;5070167;28;20559;-56
2023/05/16 00:40:08;;;;;;;3.17;2.97;;;12.00;99.90;;;;;;5071880;28;20710;-56
2023/05/16 00:42:39;;;;;;;2.17;2.07;;;12.00;99.90;;;;;;5070875;28;20260;-55
2023/05/16 00:45:07;;;;;;;2.67;2.47;;;12.00;99.90;;;;;;5070362;28;20200;-56
2023/05/16 00:47:38;;;;;;;3.20;3.00;;;12.00;99.90;;;;;;5068921;28;20201;-55
2023/05/16 00:50:06;;;;;;;5.67;2.83;;;12.10;99.90;;;;;;5069222;28;20197;-56
2023/05/16 00:52:33;;;;;;;3.60;3.40;;;12.00;99.90;;;;;;5064570;28;20920;-56
2023/05/16 00:55:01;;;;;;;2.53;2.43;;;12.00;99.90;;;;;;5067858;28;20288;-55
2023/05/16 00:57:28;;;;;;;2.60;2.50;;;12.00;99.90;;;;;;5071504;28;20206;-55
2023/05/16 00:59:56;;;;;;;2.77;2.67;;;12.00;99.90;;;;;;5068920;28;20260;-56
2023/05/16 01:02:27;;;;;;;2.83;2.63;;;12.00;99.90;;;;;;5070061;28;20598;-56
2023/05/16 01:04:55;;;;;;;2.40;2.40;;;12.00;99.90;;;;;;5062515;28;20206;-56
2023/05/16 01:07:22;;;;;;;2.50;2.30;;;12.00;99.90;;;;;;5068214;28;20227;-56
2023/05/16 01:09:49;;;;;;;2.43;2.23;;;12.00;99.90;;;;;;5069849;28;20276;-55
2023/05/16 01:12:23;;;;;;;5.07;2.47;;;12.00;99.90;;;;;;5069967;28;20232;-56
2023/05/16 01:15:00;;;;;;;2.07;1.97;;;12.00;99.90;;;;;;5069579;28;20193;-55
2023/05/16 01:17:38;;;;;;;2.37;2.17;;;12.00;99.90;;;;;;5070201;28;20262;-55
2023/05/16 01:20:14;;;;;;;3.97;3.57;;;12.00;99.90;;;;;;5070272;28;20658;-55
2023/05/16 01:23:01;;;;;;;2.40;2.30;;;12.00;99.90;;;;;;5071123;28;20223;-56
2023/05/16 01:25:41;;;;;;;2.90;2.63;;;12.10;99.90;;;;;;5062339;28;20200;-55
2023/05/16 01:28:10;;;;;;;2.73;2.60;;;12.10;99.90;;;;;;5070148;28;20261;-55
2023/05/16 01:30:41;;;;;;;2.67;2.30;;;12.00;99.90;;;;;;5071254;28;20677;-56
2023/05/16 01:33:08;;;;;;;3.43;2.70;;;12.00;99.90;;;;;;5071194;28;20289;-56
2023/05/16 01:35:40;;;;;;;2.80;2.57;;;12.00;99.90;;;;;;5069883;28;20203;-55
2023/05/16 01:38:15;;;;;;;2.70;2.60;;;12.00;99.90;;;;;;5061510;28;20249;-56
2023/05/16 01:40:48;;;;;;;3.63;2.80;;;12.00;99.90;;;;;;5065349;28;20254;-56
2023/05/16 01:43:21;;;;;;;7.20;3.10;;;12.00;99.90;;;;;;5070521;28;20307;-55
2023/05/16 01:45:51;;;;;;;3.27;3.17;;;12.00;99.90;;;;;;5071119;28;20261;-56
2023/05/16 01:48:22;;;;;;;4.37;3.30;;;12.00;99.90;;;;;;5068390;28;20205;-56
2023/05/16 01:50:55;;;;;;;3.47;3.23;;;12.00;99.90;;;;;;5070499;28;20201;-56
2023/05/16 01:53:27;;;;;;;3.40;2.50;;;12.00;99.90;;;;;;5066017;28;20262;-55
2023/05/16 01:55:57;;;;;;;2.50;2.40;;;12.10;99.90;;;;;;5069785;28;20553;-56
2023/05/16 01:58:30;;;;;;;2.37;2.37;;;12.00;99.90;;;;;;5070201;28;20211;-56
2023/05/16 02:01:02;;;;;;;2.50;2.40;;;12.00;99.90;;;;;;5070942;28;20558;-56
2023/05/16 02:03:29;;;;;;;2.93;2.70;;;12.00;99.90;;;;;;5070230;28;20228;-56
2023/05/16 02:05:56;;;;;;;3.00;2.90;;;12.00;99.90;;;;;;5072339;28;20208;-56
2023/05/16 02:08:23;;;;;;;2.67;2.50;;;12.10;99.90;;;;;;5074197;28;20666;-56
2023/05/16 02:10:50;;;;;;;2.47;2.30;;;12.00;99.90;;;;;;5074962;28;20195;-55
2023/05/16 02:13:17;;;;;;;5.10;2.50;;;12.10;99.90;;;;;;5073608;28;20755;-55
2023/05/16 02:15:45;;;;;;;3.10;2.90;;;12.10;99.90;;;;;;5073999;28;20199;-55
2023/05/16 02:18:13;;;;;;;3.70;3.40;;;12.00;99.90;;;;;;5073901;28;20280;-56
2023/05/16 02:20:39;;;;;;;3.20;2.70;;;12.00;99.90;;;;;;5068165;28;20200;-55
2023/05/16 02:23:06;;;;;;;3.13;2.93;;;12.00;99.90;;;;;;5069549;28;20246;-56
2023/05/16 02:25:33;;;;;;;2.17;2.07;;;12.00;99.90;;;;;;5073486;28;20207;-56
2023/05/16 02:28:00;;;;;;;2.57;2.47;;;12.00;99.90;;;;;;5074599;28;20192;-56
2023/05/16 02:30:27;;;;;;;2.33;2.23;;;12.00;99.90;;;;;;5073473;28;20574;-55
2023/05/16 02:32:56;;;;;;;1.77;1.77;;;12.00;99.90;;;;;;5073270;28;20220;-55
2023/05/16 02:35:23;;;;;;;2.40;2.20;;;12.00;99.90;;;;;;5073702;28;20211;-55
2023/05/16 02:37:50;;;;;;;3.10;2.93;;;12.00;99.90;;;;;;5072033;28;20194;-56
2023/05/16 02:40:17;;;;;;;2.23;2.13;;;12.10;99.90;;;;;;5074144;28;20229;-55
2023/05/16 02:42:44;;;;;;;4.33;3.93;;;12.10;99.90;;;;;;5071904;28;20308;-56
2023/05/16 02:45:11;;;;;;;5.27;4.97;;;12.10;99.90;;;;;;5074083;28;20666;-55
2023/05/16 02:47:38;;;;;;;4.70;4.40;;;12.10;99.90;;;;;;5074145;28;20207;-56
2023/05/16 02:50:07;;;;;;;5.93;5.33;;;12.10;99.90;;;;;;5070629;28;20258;-56
2023/05/16 02:52:37;;;;;;;6.77;6.17;;;12.00;99.90;;;;;;5072014;28;20273;-55
2023/05/16 02:55:04;;;;;;;5.97;5.47;;;12.00;99.90;;;;;;5073665;28;20250;-56
2023/05/16 02:57:31;;;;;;;6.83;6.23;;;12.00;99.90;;;;;;5073354;28;20257;-55
2023/05/16 02:59:59;;;;;;;7.47;5.77;;;12.00;99.90;;;;;;5073400;28;20220;-55
2023/05/16 03:02:26;;;;;;;7.97;6.70;;;12.00;99.90;;;;;;5073596;28;20308;-56
2023/05/16 03:04:53;;;;;;;6.90;6.30;;;12.00;99.90;;;;;;5073317;28;20661;-55
2023/05/16 03:07:21;;;;;;;7.53;6.07;;;12.00;99.90;;;;;;5072518;28;20249;-55
2023/05/16 03:09:48;;;;;;;5.70;5.30;;;11.90;99.90;;;;;;5073240;28;20208;-55
2023/05/16 03:12:15;;;;;;;7.00;6.10;;;11.90;99.90;;;;;;5073461;28;20269;-56
2023/05/16 03:14:42;;;;;;;6.13;5.53;;;11.80;99.90;;;;;;5072695;28;20259;-55
2023/05/16 03:17:08;;;;;;;7.23;6.63;;;11.80;99.90;;;;;;5073338;28;20230;-56
2023/05/16 03:19:35;;;;;;;6.73;6.00;;;11.70;99.90;;;;;;5070752;28;20197;-55
2023/05/16 03:22:02;;;;;;;6.20;5.70;;;11.70;99.90;;;;;;5073036;28;20239;-55
2023/05/16 03:24:31;;;;;;;5.00;4.60;;;11.70;99.90;;;;;;5067926;28;20208;-55
2023/05/16 03:26:59;;;;;;;6.93;6.33;;;11.80;99.90;;;;;;5069069;28;20208;-55
2023/05/16 03:29:26;;;;;;;7.00;6.40;;;11.80;99.90;;;;;;5073218;28;20198;-55
2023/05/16 03:31:54;;;;;;;7.57;7.07;;;11.70;99.90;;;;;;5073394;28;20224;-55
2023/05/16 03:34:21;;;;;;;8.40;7.53;;;11.70;99.90;;;;;;5072933;28;20204;-55
2023/05/16 03:36:48;;;;;;;9.13;7.63;;;11.70;99.90;;;;;;5072262;28;20203;-55
2023/05/16 03:39:16;;;;;;;9.43;8.47;;;11.80;99.90;;;;;;5068509;28;20269;-56
2023/05/16 03:41:44;;;;;;;9.33;8.40;;;11.80;99.90;;;;;;5074898;28;20228;-55
2023/05/16 03:44:12;;;;;;;9.03;8.20;;;11.90;99.90;;;;;;5072562;28;20705;-55
2023/05/16 03:46:39;;;;;;;8.67;7.97;;;11.90;99.90;;;;;;5072356;28;20265;-56
2023/05/16 03:49:06;;;;;;;9.10;8.37;;;11.90;99.90;;;;;;5076278;28;20203;-55
2023/05/16 03:51:33;;;;;;;8.80;8.00;;;11.80;99.90;;;;;;5073044;28;20272;-55
2023/05/16 03:54:00;;;;;;;9.87;8.77;;;11.80;99.90;;;;;;5071195;28;20269;-56
2023/05/16 03:56:27;;;;;;;8.67;7.90;;;11.80;99.90;;;;;;5071478;28;20209;-55
2023/05/16 03:58:55;;;;;;;7.33;6.63;;;11.80;99.90;;;;;;5068146;28;20258;-55
2023/05/16 04:01:22;;;;;;;7.70;7.00;;;11.70;99.90;;;;;;5073164;28;20555;-55
2023/05/16 04:03:49;;;;;;;6.43;5.87;;;11.70;99.90;;;;;;5070464;28;20213;-55
2023/05/16 04:06:17;;;;;;;10.83;7.50;;;11.70;99.90;;;;;;5068468;28;20196;-55
2023/05/16 04:08:44;;;;;;;7.80;7.10;;;11.70;99.90;;;;;;5072748;28;20283;-56
2023/05/16 04:11:12;;;;;;;6.70;6.03;;;11.70;99.90;;;;;;5071418;28;20302;-55
2023/05/16 04:13:39;;;;;;;6.50;5.90;;;11.70;99.90;;;;;;5070787;28;20262;-56
2023/05/16 04:16:08;;;;;;;7.03;6.27;;;11.70;99.90;;;;;;5063892;28;20693;-55
2023/05/16 04:18:35;;;;;;;6.37;5.87;;;11.70;99.90;;;;;;5072258;28;20726;-55
2023/05/16 04:21:02;;;;;;;7.27;6.57;;;11.70;99.90;;;;;;5071064;28;20508;-55
2023/05/16 04:23:29;;;;;;;6.80;6.10;;;11.60;99.90;;;;;;5059668;28;20279;-55
2023/05/16 04:25:56;;;;;;;7.57;5.63;;;11.60;99.90;;;;;;5065831;28;20195;-55
2023/05/16 04:28:23;;;;;;;7.00;5.83;;;11.60;99.90;;;;;;5070940;28;20312;-55
2023/05/16 04:30:50;;;;;;;7.13;5.00;;;11.60;99.90;;;;;;5069840;28;20200;-55
2023/05/16 04:33:19;;;;;;;6.73;6.23;;;11.50;99.90;;;;;;5070311;28;20664;-55
2023/05/16 04:35:47;;;;;;;10.40;6.13;;;11.50;99.90;;;;;;5070559;28;20291;-55
2023/05/16 04:38:14;;;;;;;6.80;6.27;;;11.50;99.90;;;;;;5070136;28;20573;-54
2023/05/16 04:40:42;;;;;;;7.77;7.07;;;11.50;99.90;;;;;;5066037;28;20200;-56
2023/05/16 04:43:09;;;;;;;7.30;6.70;;;11.40;99.90;;;;;;5067213;28;20217;-56
2023/05/16 04:45:36;;;;;;;7.67;7.07;;;11.50;99.90;;;;;;5060801;28;20273;-55
2023/05/16 04:48:03;;;;;;;9.10;7.43;;;11.40;99.90;;;;;;5071521;28;20197;-55
2023/05/16 04:50:32;;;;;;;7.07;6.40;;;11.50;99.90;;;;;;5070911;28;20203;-55
2023/05/16 04:52:59;;;;;;;7.50;6.90;;;11.50;99.90;;;;;;5068971;28;20228;-55
2023/05/16 04:55:26;;;;;;;6.93;6.43;;;11.50;99.90;;;;;;5076086;28;20670;-56
2023/05/16 04:57:53;;;;;;;6.70;6.20;;;11.50;99.90;;;;;;5069229;28;20261;-55
2023/05/16 05:00:21;;;;;;;8.87;8.10;;;11.50;99.90;;;;;;5063865;28;20282;-55
2023/05/16 05:02:48;;;;;;;7.27;6.67;;;11.60;99.90;;;;;;5070308;28;20229;-55
2023/05/16 05:05:15;;;;;;;7.20;6.60;;;11.60;99.90;;;;;;5070656;28;20204;-55
2023/05/16 05:07:44;;;;;;;7.37;6.60;;;11.70;99.90;;;;;;5072191;28;20290;-55
2023/05/16 05:10:11;;;;;;;7.50;6.80;;;11.70;99.90;;;;;;5066946;28;20200;-55
2023/05/16 05:12:39;;;;;;;8.17;7.47;;;11.80;99.90;;;;;;5070390;28;20709;-55
2023/05/16 05:15:07;;;;;;;8.43;7.47;;;11.70;99.90;;;;;;5071274;28;20296;-55
2023/05/16 05:17:38;;;;;;;7.17;6.57;;;11.80;99.90;;;;;;5071610;28;20293;-55
2023/05/16 05:20:07;;;;;;;8.53;7.83;;;11.80;99.90;;;;;;5071191;28;20287;-55
2023/05/16 05:22:37;;;;;;;11.13;10.03;;;11.80;99.90;;;;;;5070495;28;20710;-56
2023/05/16 05:25:07;;;;;;;12.80;10.93;;;11.90;99.90;;;;;;5070106;28;20303;-55
2023/05/16 05:27:34;;;;;;;13.50;9.57;;;12.00;99.90;;;;;;5070076;28;20578;-55
2023/05/16 05:30:01;;;;;;;12.13;10.93;;;12.10;99.90;;;;;;5070012;28;20287;-55
2023/05/16 05:32:28;;;;;;;12.00;10.73;;;12.10;99.90;;;;;;5067590;28;20210;-56
2023/05/16 05:34:55;;;;;;;11.13;10.13;;;12.20;99.90;;;;;;5051579;28;20255;-55
2023/05/16 05:37:22;;;;;;;9.70;8.63;;;12.20;99.90;;;;;;5066637;28;20201;-55
2023/05/16 05:39:49;;;;;;;9.87;8.97;;;12.30;99.90;;;;;;5064931;28;20207;-55
2023/05/16 05:42:17;;;;;;;11.47;9.63;;;12.40;99.90;;;;;;5066205;28;20230;-56
2023/05/16 05:44:44;;;;;;;10.30;9.40;;;12.40;99.90;;;;;;5070153;28;20228;-55
2023/05/16 05:47:12;;;;;;;10.50;9.50;;;12.50;99.90;;;;;;5070662;28;20250;-56
2023/05/16 05:49:40;;;;;;;11.43;10.23;;;12.50;99.90;;;;;;5070692;28;20208;-56
2023/05/16 05:52:08;;;;;;;9.73;8.83;;;12.50;99.90;;;;;;5062752;28;20232;-56
2023/05/16 05:54:35;;;;;;;9.60;8.67;;;12.50;99.90;;;;;;5074467;28;20234;-56
2023/05/16 05:57:02;;;;;;;8.80;8.03;;;12.60;99.90;;;;;;5082037;28;20558;-56
2023/05/16 05:59:30;;;;;;;8.87;7.97;;;12.70;99.90;;;;;;5074492;28;20201;-55
2023/05/16 06:01:59;;;;;;;11.63;9.33;;;12.70;99.90;;;;;;5080718;28;20238;-55
2023/05/16 06:04:26;;;;;;;12.77;10.17;;;12.90;99.90;;;;;;5079475;28;20277;-55
2023/05/16 06:06:53;;;;;;;10.80;9.77;;;13.20;99.90;;;;;;5079937;28;20226;-55
2023/05/16 06:09:21;;;;;;;9.77;8.87;;;13.30;99.90;;;;;;5079282;28;20242;-56
2023/05/16 06:11:49;;;;;;;10.63;9.53;;;13.50;99.90;;;;;;5070438;28;20258;-56
2023/05/16 06:14:16;;;;;;;9.87;8.97;;;13.70;99.90;;;;;;5067541;28;20266;-55
2023/05/16 06:16:45;;;;;;;10.30;7.93;;;13.90;99.90;;;;;;5070662;28;20194;-55
2023/05/16 06:19:14;;;;;;;8.93;8.23;;;14.00;99.90;;;;;;5068336;28;20201;-56
2023/05/16 06:21:42;;;;;;;9.20;8.40;;;14.20;99.90;;;;;;5066629;28;20221;-55
2023/05/16 06:24:11;;;;;;;8.63;8.03;;;14.20;99.90;;;;;;5067788;28;20307;-55
2023/05/16 06:26:38;;;;;;;8.83;8.10;;;14.10;99.90;;;;;;5069331;28;20199;-55
2023/05/16 06:29:05;;;;;;;8.37;7.67;;;13.70;99.90;;;;;;5062082;28;20204;-54
2023/05/16 06:31:32;;;;;;;9.10;8.20;;;13.60;99.90;;;;;;5068603;28;20200;-55
2023/05/16 06:34:01;;;;;;;10.23;9.17;;;13.40;99.90;;;;;;5070324;28;20196;-55
2023/05/16 06:36:28;;;;;;;10.53;9.57;;;13.30;99.90;;;;;;5069717;28;20284;-55
2023/05/16 06:38:55;;;;;;;11.23;10.23;;;13.30;99.90;;;;;;5070570;28;20231;-55
2023/05/16 06:41:22;;;;;;;9.67;8.77;;;13.30;99.90;;;;;;5070803;28;20208;-55
2023/05/16 06:43:49;;;;;;;9.23;8.43;;;13.40;99.90;;;;;;5068642;28;20628;-56
2023/05/16 06:46:16;;;;;;;7.93;7.33;;;13.50;99.90;;;;;;5069260;28;20199;-55
2023/05/16 06:48:43;;;;;;;8.10;7.40;;;13.70;99.90;;;;;;5070407;28;20249;-55
2023/05/16 06:51:11;;;;;;;7.07;6.57;;;14.30;99.90;;;;;;5073922;28;20266;-55
2023/05/16 06:53:38;;;;;;;6.40;5.90;;;14.80;99.90;;;;;;5073032;28;20297;-56
2023/05/16 06:56:05;;;;;;;8.80;5.93;;;15.30;99.90;;;;;;5071375;28;20197;-55
2023/05/16 06:58:32;;;;;;;5.75;5.50;;;15.40;99.90;;;;;;5064306;28;20450;-56
2023/05/16 07:00:59;;;;;;;5.83;5.43;;;15.30;99.90;;;;;;5069074;28;20193;-56
2023/05/16 07:03:26;;;;;;;5.57;5.17;;;15.30;99.90;;;;;;5077470;22;20687;-63
2023/05/16 07:05:53;;;;;;;5.17;4.87;;;15.40;99.90;;;;;;5052306;28;20197;-63
2023/05/16 07:08:22;;;;;;;5.47;5.17;;;15.50;99.90;;;;;;5049915;28;20198;-61
2023/05/16 07:10:49;;;;;;;5.30;4.90;;;15.50;99.90;;;;;;5053137;28;20198;-52
2023/05/16 07:13:16;;;;;;;5.60;5.27;;;15.30;99.90;;;;;;5053105;28;20221;-69
2023/05/16 07:15:43;;;;;;;5.47;5.13;;;15.00;99.90;;;;;;5049887;28;20229;-62
2023/05/16 07:18:10;;;;;;;6.10;5.70;;;14.90;99.90;;;;;;5045848;28;20205;-62
2023/05/16 07:20:37;;;;;;;7.47;6.20;;;14.80;99.90;;;;;;5053430;28;20206;-63
2023/05/16 07:23:05;;;;;;;6.97;6.43;;;14.60;99.90;;;;;;5049953;28;20257;-62
2023/05/16 07:25:33;;;;;;;7.30;6.70;;;14.50;99.90;;;;;;5034162;28;20233;-60
2023/05/16 07:28:00;;;;;;;8.03;7.43;;;14.50;99.90;;;;;;5052254;28;20206;-62
2023/05/16 07:30:28;;;;;;;7.93;7.23;;;14.60;99.90;;;;;;5053348;28;20201;-62
2023/05/16 07:32:55;;;;;;;8.27;7.47;;;14.90;99.90;;;;;;5052351;28;20218;-60
2023/05/16 07:35:22;;;;;;;9.63;8.23;;;15.40;99.90;;;;;;5052374;28;20194;-51
2023/05/16 07:37:50;;;;;;;9.90;8.90;;;16.20;99.90;;;;;;5053619;28;20255;-65
2023/05/16 07:40:19;;;;;;;10.67;9.60;;;16.50;99.90;;;;;;5050675;28;20194;-65
2023/05/16 07:42:48;;;;;;;10.90;10.00;;;16.10;99.90;;;;;;5051353;28;20217;-65
2023/05/16 07:45:15;;;;;;;9.57;8.67;;;15.50;99.90;;;;;;5052072;28;20252;-62
2023/05/16 07:47:42;;;;;;;10.47;8.67;;;15.40;99.90;;;;;;5050258;28;20198;-64
2023/05/16 07:50:09;;;;;;;9.90;9.00;;;14.90;99.90;;;;;;5052727;28;20234;-65
2023/05/16 07:52:38;;;;;;;9.93;8.93;;;14.60;99.90;;;;;;5052785;28;20221;-63
2023/05/16 07:55:06;;;;;;;10.10;9.07;;;14.50;99.90;;;;;;5050754;28;20726;-61
2023/05/16 07:57:33;;;;;;;11.23;9.73;;;14.40;99.90;;;;;;5050801;28;20283;-61
2023/05/16 08:00:03;;;;;;;11.00;9.90;;;14.40;99.90;;;;;;5048227;28;20857;-61
2023/05/16 08:02:30;;;;;;;12.20;10.90;;;14.30;99.90;;;;;;5050865;28;20236;-63
2023/05/16 08:04:57;;;;;;;11.90;10.40;;;14.20;99.90;;;;;;5052413;28;20253;-59
2023/05/16 08:07:24;;;;;;;12.57;11.27;;;14.00;99.90;;;;;;5050613;28;20686;-61
2023/05/16 08:09:51;;;;;;;12.37;11.10;;;13.90;99.90;;;;;;5052965;28;20267;-59
2023/05/16 08:12:18;;;;;;;13.30;11.83;;;13.80;99.90;;;;;;5052022;28;20222;-60
2023/05/16 08:14:45;;;;;;;11.67;10.57;;;13.90;99.90;;;;;;5051315;28;20254;-59
2023/05/16 08:17:14;;;;;;;11.83;10.70;;;14.00;99.90;;;;;;5050365;28;20193;-60
2023/05/16 08:19:41;;;;;;;13.80;11.73;;;14.00;99.90;;;;;;5051442;28;20652;-60
2023/05/16 08:22:09;;;;;;;14.43;11.97;;;14.00;99.90;;;;;;5050609;28;20234;-60
2023/05/16 08:24:36;;;;;;;12.70;11.53;;;14.10;99.90;;;;;;5050134;28;20217;-61
2023/05/16 08:27:03;;;;;;;16.20;12.23;;;14.10;99.90;;;;;;5049000;28;20220;-51
2023/05/16 08:29:30;;;;;;;13.97;12.57;;;14.30;99.90;;;;;;5047539;28;20263;-51
2023/05/16 08:31:58;;;;;;;12.83;11.37;;;14.50;99.90;;;;;;5048692;28;20714;-51
2023/05/16 08:34:26;;;;;;;12.27;11.07;;;14.60;99.90;;;;;;5045746;28;20280;-51
2023/05/16 08:36:53;;;;;;;13.90;12.50;;;14.60;99.90;;;;;;5047933;28;20903;-51
2023/05/16 08:39:20;;;;;;;13.73;12.23;;;14.60;99.90;;;;;;5048685;28;20194;-51
2023/05/16 08:41:47;;;;;;;14.53;12.60;;;14.50;99.90;;;;;;5048071;28;20634;-51
2023/05/16 08:44:20;;;;;;;14.57;13.10;;;14.50;99.90;;;;;;5050312;28;20222;-51
2023/05/16 08:46:51;;;;;;;17.13;13.13;;;14.60;99.90;;;;;;5052113;28;20201;-52
2023/05/16 08:49:18;;;;;;;16.50;13.47;;;14.70;99.90;;;;;;5051340;28;20212;-52
2023/05/16 08:51:51;;;;;;;15.37;13.87;;;14.70;99.90;;;;;;5043969;28;20279;-52
2023/05/16 08:54:18;;;;;;;14.67;12.93;;;14.80;99.90;;;;;;5051322;28;20205;-51
2023/05/16 08:56:47;;;;;;;15.77;13.03;;;14.70;99.90;;;;;;5052562;28;20251;-51
2023/05/16 08:59:14;;;;;;;16.10;14.43;;;14.90;99.90;;;;;;5052292;28;20213;-51
2023/05/16 09:01:41;;;;;;;17.00;14.57;;;15.00;99.90;;;;;;5051859;28;20661;-51
2023/05/16 09:04:09;;;;;;;13.33;12.03;;;15.00;99.90;;;;;;5052972;28;20782;-52
2023/05/16 09:06:36;;;;;;;15.83;12.27;;;15.00;99.90;;;;;;5049664;28;20255;-52
2023/05/16 09:09:08;;;;;;;14.93;13.43;;;15.00;99.90;;;;;;5032327;28;20737;-51
2023/05/16 09:11:36;;;;;;;14.33;13.00;;;14.90;99.90;;;;;;5031897;28;20202;-51
2023/05/16 09:14:04;;;;;;;14.37;12.87;;;14.70;99.90;;;;;;5031535;28;20608;-51
2023/05/16 09:16:31;;;;;;;14.97;13.57;;;14.60;99.90;;;;;;5032093;28;20198;-52
2023/05/16 09:19:00;;;;;;;15.07;13.57;;;14.50;99.90;;;;;;5046990;28;20208;-51
2023/05/16 09:21:28;;;;;;;14.17;12.20;;;14.30;99.90;;;;;;5052078;28;20198;-51
2023/05/16 09:23:55;;;;;;;13.83;12.43;;;14.10;99.90;;;;;;5031687;28;20252;-51
2023/05/16 09:26:25;;;;;;;16.43;14.70;;;13.90;99.90;;;;;;5044504;28;20205;-51
2023/05/16 09:28:54;;;;;;;14.80;13.40;;;13.70;99.90;;;;;;5049192;28;20284;-51
2023/05/16 09:31:25;;;;;;;16.63;14.73;;;13.70;99.90;;;;;;5050631;28;20204;-51
2023/05/16 09:33:52;;;;;;;21.17;16.67;;;13.60;99.90;;;;;;5051600;28;20309;-51
2023/05/16 09:36:19;;;;;;;20.07;16.73;;;13.60;99.90;;;;;;5050810;28;20720;-51
2023/05/16 09:38:46;;;;;;;19.53;17.23;;;13.60;99.90;;;;;;5050210;28;20642;-51
2023/05/16 09:41:13;;;;;;;19.30;16.17;;;13.60;99.90;;;;;;5049209;28;20663;-51
2023/05/16 09:43:43;;;;;;;17.77;15.87;;;13.70;99.90;;;;;;5049954;28;20223;-51
2023/05/16 09:46:13;;;;;;;18.43;15.43;;;13.70;99.90;;;;;;5046322;28;20224;-51
2023/05/16 09:48:41;;;;;;;20.73;16.40;;;13.80;99.90;;;;;;5047376;28;20196;-51
2023/05/16 09:51:08;;;;;;;17.90;16.00;;;13.90;99.90;;;;;;5050866;28;20194;-51
2023/05/16 09:53:38;;;;;;;26.70;17.70;;;13.90;99.90;;;;;;5051210;28;20224;-52
2023/05/16 09:56:07;;;;;;;19.13;17.13;;;14.00;99.90;;;;;;5048201;28;20205;-51
2023/05/16 09:58:36;;;;;;;19.87;16.07;;;14.10;99.90;;;;;;5042945;28;20552;-51
2023/05/16 10:01:05;;;;;;;18.63;16.03;;;14.30;99.90;;;;;;5051067;28;20267;-51
2023/05/16 10:03:35;;;;;;;22.02;18.95;;;14.40;99.90;;;;;;5047424;28;20482;-61
2023/05/16 10:06:03;;;;;;;19.93;17.70;;;14.60;99.90;;;;;;5049380;28;20216;-58
2023/05/16 10:08:35;;;;;;;19.07;17.10;;;14.70;99.90;;;;;;5046718;28;20206;-60
2023/05/16 10:11:02;;;;;;;18.50;16.60;;;14.70;99.90;;;;;;5050994;28;20634;-60
2023/05/16 10:13:31;;;;;;;18.13;15.87;;;14.60;99.90;;;;;;5042958;28;20284;-59
2023/05/16 10:16:00;;;;;;;19.70;16.50;;;14.60;99.90;;;;;;5031411;28;20202;-59
2023/05/16 10:18:30;;;;;;;17.90;16.17;;;14.60;99.90;;;;;;5042813;28;20213;-58
2023/05/16 10:21:01;;;;;;;19.27;15.60;;;14.60;99.90;;;;;;5051646;28;20252;-59
2023/05/16 10:23:28;;;;;;;16.40;14.90;;;14.60;99.90;;;;;;5052504;28;20221;-58
2023/05/16 10:25:57;;;;;;;16.40;14.80;;;14.60;99.90;;;;;;5051404;28;20780;-59
2023/05/16 10:28:25;;;;;;;15.93;14.33;;;14.50;99.90;;;;;;5054601;28;20205;-59
2023/05/16 10:30:54;;;;;;;18.13;16.33;;;14.50;99.90;;;;;;5053105;28;20205;-52
2023/05/16 10:33:21;;;;;;;19.10;15.97;;;14.60;99.90;;;;;;5043664;28;20294;-52
2023/05/16 10:35:50;;;;;;;17.80;16.03;;;14.70;99.90;;;;;;5045356;28;20679;-52
2023/05/16 10:38:19;;;;;;;18.43;16.53;;;14.80;99.90;;;;;;5046517;28;20232;-53
2023/05/16 10:40:48;;;;;;;17.17;15.47;;;14.90;99.90;;;;;;5046527;28;20197;-52
2023/05/16 10:43:24;;;;;;;16.77;14.83;;;14.90;99.90;;;;;;5045754;28;20332;-52
2023/05/16 10:45:55;;;;;;;21.03;16.73;;;14.90;99.90;;;;;;5053436;28;20971;-52
2023/05/16 10:48:30;;;;;;;20.23;16.63;;;14.60;99.90;;;;;;5045224;28;20206;-52
2023/05/16 10:50:58;;;;;;;17.13;15.53;;;14.40;99.90;;;;;;5052449;28;20211;-53
2023/05/16 10:53:31;;;;;;;16.27;14.67;;;14.30;99.90;;;;;;5048392;28;20645;-59
2023/05/16 10:56:10;;;;;;;18.77;17.00;;;14.10;99.90;;;;;;5049550;28;20204;-58
2023/05/16 10:58:42;;;;;;;18.50;16.43;;;14.00;99.90;;;;;;5046020;28;20198;-61
2023/05/16 11:01:23;;;;;;;18.33;16.50;;;13.90;99.90;;;;;;5051557;28;20198;-61
2023/05/16 11:04:04;;;;;;;12.40;11.20;;;13.90;99.90;;;;;;5053370;28;20225;-61
2023/05/16 11:06:34;;;;;;;11.37;10.37;;;13.80;99.90;;;;;;5046084;28;20209;-61
2023/05/16 11:09:09;;;;;;;11.83;10.80;;;13.70;99.90;;;;;;5045637;28;20199;-62
2023/05/16 11:11:40;;;;;;;12.07;10.90;;;13.60;99.90;;;;;;5044817;28;20197;-51
2023/05/16 11:14:07;;;;;;;12.93;11.53;;;13.60;99.90;;;;;;5047004;28;20205;-51
2023/05/16 11:16:35;;;;;;;12.87;11.67;;;13.60;99.90;;;;;;5053471;28;20209;-51
2023/05/16 11:19:06;;;;;;;12.07;10.97;;;13.60;99.90;;;;;;5054235;28;20260;-51
2023/05/16 11:22:08;;;;;;;13.73;12.40;;;13.50;99.90;;;;;;5054108;28;20202;-51
2023/05/16 11:24:38;;;;;;;16.20;14.70;;;13.50;99.90;;;;;;5047305;28;20282;-61
2023/05/16 11:27:05;;;;;;;14.43;12.83;;;13.50;99.90;;;;;;5045114;28;20232;-60
2023/05/16 11:29:33;;;;;;;15.03;13.57;;;13.50;99.90;;;;;;5054173;28;20213;-63
2023/05/16 11:32:02;;;;;;;14.67;13.30;;;13.50;99.90;;;;;;5054111;28;20221;-61
2023/05/16 11:34:30;;;;;;;12.93;11.80;;;13.40;99.90;;;;;;5052402;28;20208;-62
2023/05/16 11:36:57;;;;;;;13.27;12.13;;;13.60;99.90;;;;;;5053327;28;20577;-61
2023/05/16 11:39:24;;;;;;;14.53;13.13;;;13.70;99.90;;;;;;5053674;28;20202;-62
2023/05/16 11:41:53;;;;;;;15.90;14.20;;;13.80;99.90;;;;;;5053471;28;20758;-62
2023/05/16 11:44:20;;;;;;;19.70;17.60;;;13.90;99.90;;;;;;5053454;28;20712;-62
2023/05/16 11:46:47;;;;;;;22.10;18.93;;;13.70;99.90;;;;;;5051589;28;20221;-60
2023/05/16 11:49:15;;;;;;;23.83;21.43;;;13.50;99.90;;;;;;5053647;28;20210;-62
2023/05/16 11:51:42;;;;;;;27.87;23.07;;;13.40;99.90;;;;;;5052682;28;20196;-61
2023/05/16 11:54:10;;;;;;;33.87;25.20;;;13.30;99.90;;;;;;5053185;28;20291;-61
2023/05/16 11:56:37;;;;;;;29.07;24.13;;;13.20;99.90;;;;;;5044006;28;20239;-60
2023/05/16 11:59:06;;;;;;;29.97;24.73;;;13.20;99.90;;;;;;5051916;28;20263;-63
2023/05/16 12:01:34;;;;;;;32.93;26.70;;;13.30;99.90;;;;;;5045464;28;20199;-61
2023/05/16 12:04:01;;;;;;;33.33;26.83;;;13.20;99.90;;;;;;5044448;28;20260;-63
2023/05/16 12:06:30;;;;;;;35.10;26.93;;;13.10;99.90;;;;;;5033591;28;20335;-60
2023/05/16 12:08:57;;;;;;;34.93;27.17;;;12.90;99.90;;;;;;5033857;28;20784;-60
2023/05/16 12:11:24;;;;;;;33.23;26.43;;;12.90;99.90;;;;;;5051166;28;20204;-59
2023/05/16 12:13:51;;;;;;;32.87;26.07;;;12.90;99.90;;;;;;5051526;28;20312;-59
2023/05/16 12:16:20;;;;;;;30.10;25.23;;;12.90;99.90;;;;;;5053038;28;20255;-59
2023/05/16 12:18:48;;;;;;;32.83;26.17;;;12.90;99.90;;;;;;5052276;28;20277;-59
2023/05/16 12:21:16;;;;;;;27.00;22.60;;;12.80;99.90;;;;;;5040708;28;20194;-60
2023/05/16 12:23:43;;;;;;;24.70;20.70;;;12.80;99.90;;;;;;5052447;28;20224;-60
2023/05/16 12:26:10;;;;;;;27.57;19.80;;;12.70;99.90;;;;;;5052729;28;20231;-60
2023/05/16 12:28:38;;;;;;;22.53;19.33;;;12.70;99.90;;;;;;5052022;28;20212;-61
2023/05/16 12:31:12;;;;;;;22.97;20.57;;;12.60;99.90;;;;;;5052841;28;20666;-62
2023/05/16 12:33:40;;;;;;;26.60;20.80;;;12.50;99.90;;;;;;5052692;28;20310;-60
2023/05/16 12:36:14;;;;;;;23.33;20.80;;;12.60;99.90;;;;;;5053176;28;20228;-61
2023/05/16 12:38:41;;;;;;;19.07;17.07;;;12.40;99.90;;;;;;5052346;28;20212;-61
2023/05/16 12:41:09;;;;;;;17.67;15.80;;;12.30;99.90;;;;;;5050607;28;20232;-61
2023/05/16 12:43:35;;;;;;;24.40;21.47;;;12.30;99.90;;;;;;5051920;28;20315;-60